sensor_id;sensor_type;location;lat;lon;timestamp;P1;durP1;ratioP1;P2;durP2;ratioP2
11998;SDS011;40817;51.520;9.954;2023-09-19T00:02:05;3.35;;;0.80;;
11998;SDS011;40817;51.520;9.954;2023-09-19T00:04:34;2.53;;;1.33;;
11998;SDS011;40817;51.520;9.954;2023-09-19T00:07:04;2.10;;;0.88;;
11998;SDS011;40817;51.520;9.954;2023-09-19T00:09:32;1.48;;;0.85;;
11998;SDS011;40817;51.520;9.954;2023-09-19T00:12:02;2.78;;;1.27;;
11998;SDS011;40817;51.520;9.954;2023-09-19T00:14:34;2.58;;;0.60;;
11998;SDS011;40817;51.520;9.954;2023-09-19T00:17:02;1.40;;;1.00;;
11998;SDS011;40817;51.520;9.954;2023-09-19T00:19:34;3.40;;;0.90;;
11998;SDS011;40817;51.520;9.954;2023-09-19T00:22:03;3.47;;;1.17;;
11998;SDS011;40817;51.520;9.954;2023-09-19T00:24:30;1.67;;;0.82;;
11998;SDS011;40817;51.520;9.954;2023-09-19T00:26:57;1.77;;;0.90;;
11998;SDS011;40817;51.520;9.954;2023-09-19T00:29:25;2.67;;;1.05;;
11998;SDS011;40817;51.520;9.954;2023-09-19T00:31:54;2.72;;;0.80;;
11998;SDS011;40817;51.520;9.954;2023-09-19T00:34:22;2.78;;;1.00;;
11998;SDS011;40817;51.520;9.954;2023-09-19T00:36:51;1.80;;;1.10;;
11998;SDS011;40817;51.520;9.954;2023-09-19T00:39:19;2.28;;;1.40;;
11998;SDS011;40817;51.520;9.954;2023-09-19T00:41:47;2.00;;;1.00;;
11998;SDS011;40817;51.520;9.954;2023-09-19T00:44:15;2.60;;;1.17;;
11998;SDS011;40817;51.520;9.954;2023-09-19T00:46:44;3.08;;;0.95;;
11998;SDS011;40817;51.520;9.954;2023-09-19T00:49:14;2.53;;;1.13;;
11998;SDS011;40817;51.520;9.954;2023-09-19T00:51:41;3.17;;;1.10;;
11998;SDS011;40817;51.520;9.954;2023-09-19T00:54:13;1.83;;;0.90;;
11998;SDS011;40817;51.520;9.954;2023-09-19T00:56:43;2.35;;;1.10;;
11998;SDS011;40817;51.520;9.954;2023-09-19T00:59:13;1.77;;;0.90;;
11998;SDS011;40817;51.520;9.954;2023-09-19T01:01:41;1.90;;;1.20;;
11998;SDS011;40817;51.520;9.954;2023-09-19T01:04:11;2.38;;;1.30;;
11998;SDS011;40817;51.520;9.954;2023-09-19T01:06:38;1.70;;;1.00;;
11998;SDS011;40817;51.520;9.954;2023-09-19T01:09:06;3.08;;;1.20;;
11998;SDS011;40817;51.520;9.954;2023-09-19T01:11:35;2.58;;;0.93;;
11998;SDS011;40817;51.520;9.954;2023-09-19T01:14:13;1.55;;;0.90;;
11998;SDS011;40817;51.520;9.954;2023-09-19T01:16:59;2.50;;;1.00;;
11998;SDS011;40817;51.520;9.954;2023-09-19T01:19:38;3.72;;;1.40;;
11998;SDS011;40817;51.520;9.954;2023-09-19T01:22:53;3.00;;;1.23;;
11998;SDS011;40817;51.520;9.954;2023-09-19T01:25:48;3.35;;;1.30;;
11998;SDS011;40817;51.520;9.954;2023-09-19T01:28:56;4.15;;;1.83;;
11998;SDS011;40817;51.520;9.954;2023-09-19T01:31:55;2.60;;;1.15;;
11998;SDS011;40817;51.520;9.954;2023-09-19T01:34:28;2.95;;;1.38;;
11998;SDS011;40817;51.520;9.954;2023-09-19T01:37:15;2.35;;;1.30;;
11998;SDS011;40817;51.520;9.954;2023-09-19T01:39:45;1.98;;;1.30;;
11998;SDS011;40817;51.520;9.954;2023-09-19T01:42:18;3.60;;;1.20;;
11998;SDS011;40817;51.520;9.954;2023-09-19T01:45:03;2.78;;;0.95;;
11998;SDS011;40817;51.520;9.954;2023-09-19T01:47:41;3.80;;;1.55;;
11998;SDS011;40817;51.520;9.954;2023-09-19T01:50:21;3.42;;;1.38;;
11998;SDS011;40817;51.520;9.954;2023-09-19T01:53:02;6.43;;;1.73;;
11998;SDS011;40817;51.520;9.954;2023-09-19T01:55:41;3.20;;;1.40;;
11998;SDS011;40817;51.520;9.954;2023-09-19T01:58:16;4.47;;;1.30;;
11998;SDS011;40817;51.520;9.954;2023-09-19T02:00:52;2.92;;;1.40;;
11998;SDS011;40817;51.520;9.954;2023-09-19T02:03:22;5.70;;;1.50;;
11998;SDS011;40817;51.520;9.954;2023-09-19T02:05:51;6.38;;;1.75;;
11998;SDS011;40817;51.520;9.954;2023-09-19T02:08:19;5.57;;;1.50;;
11998;SDS011;40817;51.520;9.954;2023-09-19T02:10:49;3.58;;;1.65;;
11998;SDS011;40817;51.520;9.954;2023-09-19T02:13:17;2.30;;;1.20;;
11998;SDS011;40817;51.520;9.954;2023-09-19T02:15:47;5.00;;;1.70;;
11998;SDS011;40817;51.520;9.954;2023-09-19T02:18:14;3.85;;;1.60;;
11998;SDS011;40817;51.520;9.954;2023-09-19T02:20:43;3.55;;;1.23;;
11998;SDS011;40817;51.520;9.954;2023-09-19T02:23:11;2.63;;;1.67;;
11998;SDS011;40817;51.520;9.954;2023-09-19T02:25:40;3.58;;;1.38;;
11998;SDS011;40817;51.520;9.954;2023-09-19T02:28:08;3.38;;;1.35;;
11998;SDS011;40817;51.520;9.954;2023-09-19T02:30:35;2.65;;;1.58;;
11998;SDS011;40817;51.520;9.954;2023-09-19T02:33:03;2.63;;;1.45;;
11998;SDS011;40817;51.520;9.954;2023-09-19T02:35:30;2.67;;;1.52;;
11998;SDS011;40817;51.520;9.954;2023-09-19T02:38:01;4.32;;;1.27;;
11998;SDS011;40817;51.520;9.954;2023-09-19T02:40:31;2.58;;;1.50;;
11998;SDS011;40817;51.520;9.954;2023-09-19T02:43:01;4.78;;;1.75;;
11998;SDS011;40817;51.520;9.954;2023-09-19T02:45:30;3.47;;;1.50;;
11998;SDS011;40817;51.520;9.954;2023-09-19T02:47:58;10.52;;;2.22;;
11998;SDS011;40817;51.520;9.954;2023-09-19T02:50:27;4.22;;;1.50;;
11998;SDS011;40817;51.520;9.954;2023-09-19T02:52:55;2.17;;;1.25;;
11998;SDS011;40817;51.520;9.954;2023-09-19T02:55:23;6.13;;;2.08;;
11998;SDS011;40817;51.520;9.954;2023-09-19T02:57:52;3.17;;;1.50;;
11998;SDS011;40817;51.520;9.954;2023-09-19T03:00:21;4.47;;;1.60;;
11998;SDS011;40817;51.520;9.954;2023-09-19T03:02:49;2.88;;;1.85;;
11998;SDS011;40817;51.520;9.954;2023-09-19T03:05:19;5.95;;;1.80;;
11998;SDS011;40817;51.520;9.954;2023-09-19T03:07:48;4.57;;;1.50;;
11998;SDS011;40817;51.520;9.954;2023-09-19T03:10:16;2.60;;;1.50;;
11998;SDS011;40817;51.520;9.954;2023-09-19T03:12:45;3.30;;;1.45;;
11998;SDS011;40817;51.520;9.954;2023-09-19T03:15:13;5.00;;;1.52;;
11998;SDS011;40817;51.520;9.954;2023-09-19T03:17:42;3.35;;;1.25;;
11998;SDS011;40817;51.520;9.954;2023-09-19T03:20:10;2.45;;;1.48;;
11998;SDS011;40817;51.520;9.954;2023-09-19T03:22:39;3.08;;;1.60;;
11998;SDS011;40817;51.520;9.954;2023-09-19T03:25:06;2.25;;;1.35;;
11998;SDS011;40817;51.520;9.954;2023-09-19T03:27:37;4.68;;;1.67;;
11998;SDS011;40817;51.520;9.954;2023-09-19T03:30:06;5.22;;;2.03;;
11998;SDS011;40817;51.520;9.954;2023-09-19T03:32:43;3.55;;;1.40;;
11998;SDS011;40817;51.520;9.954;2023-09-19T03:35:12;2.60;;;1.70;;
11998;SDS011;40817;51.520;9.954;2023-09-19T03:37:40;4.93;;;1.70;;
11998;SDS011;40817;51.520;9.954;2023-09-19T03:40:08;2.65;;;1.77;;
11998;SDS011;40817;51.520;9.954;2023-09-19T03:42:37;2.72;;;1.70;;
11998;SDS011;40817;51.520;9.954;2023-09-19T03:45:07;5.68;;;1.88;;
11998;SDS011;40817;51.520;9.954;2023-09-19T03:47:38;5.97;;;1.60;;
11998;SDS011;40817;51.520;9.954;2023-09-19T03:50:06;3.75;;;1.60;;
11998;SDS011;40817;51.520;9.954;2023-09-19T03:52:36;4.18;;;2.03;;
11998;SDS011;40817;51.520;9.954;2023-09-19T03:55:03;4.03;;;1.67;;
11998;SDS011;40817;51.520;9.954;2023-09-19T03:57:32;8.90;;;2.38;;
11998;SDS011;40817;51.520;9.954;2023-09-19T04:00:01;2.60;;;1.60;;
11998;SDS011;40817;51.520;9.954;2023-09-19T04:02:32;2.58;;;1.70;;
11998;SDS011;40817;51.520;9.954;2023-09-19T04:04:59;4.20;;;1.98;;
11998;SDS011;40817;51.520;9.954;2023-09-19T04:07:27;2.92;;;1.80;;
11998;SDS011;40817;51.520;9.954;2023-09-19T04:09:55;3.30;;;1.90;;
11998;SDS011;40817;51.520;9.954;2023-09-19T04:12:22;4.07;;;1.88;;
11998;SDS011;40817;51.520;9.954;2023-09-19T04:14:49;5.00;;;2.40;;
11998;SDS011;40817;51.520;9.954;2023-09-19T04:17:16;3.15;;;1.98;;
11998;SDS011;40817;51.520;9.954;2023-09-19T04:19:45;2.85;;;1.70;;
11998;SDS011;40817;51.520;9.954;2023-09-19T04:22:13;3.78;;;1.88;;
11998;SDS011;40817;51.520;9.954;2023-09-19T04:24:40;4.65;;;2.15;;
11998;SDS011;40817;51.520;9.954;2023-09-19T04:27:08;10.40;;;2.63;;
11998;SDS011;40817;51.520;9.954;2023-09-19T04:29:37;4.45;;;2.08;;
11998;SDS011;40817;51.520;9.954;2023-09-19T04:32:04;6.40;;;1.83;;
11998;SDS011;40817;51.520;9.954;2023-09-19T04:34:32;3.15;;;2.00;;
11998;SDS011;40817;51.520;9.954;2023-09-19T04:37:01;5.70;;;2.42;;
11998;SDS011;40817;51.520;9.954;2023-09-19T04:39:29;5.95;;;2.33;;
11998;SDS011;40817;51.520;9.954;2023-09-19T04:41:56;4.90;;;2.15;;
11998;SDS011;40817;51.520;9.954;2023-09-19T04:44:24;4.68;;;2.03;;
11998;SDS011;40817;51.520;9.954;2023-09-19T04:46:51;3.83;;;2.20;;
11998;SDS011;40817;51.520;9.954;2023-09-19T04:49:19;3.13;;;1.88;;
11998;SDS011;40817;51.520;9.954;2023-09-19T04:51:46;5.45;;;1.98;;
11998;SDS011;40817;51.520;9.954;2023-09-19T04:54:14;5.38;;;1.85;;
11998;SDS011;40817;51.520;9.954;2023-09-19T04:56:43;9.13;;;2.63;;
11998;SDS011;40817;51.520;9.954;2023-09-19T04:59:10;3.95;;;1.75;;
11998;SDS011;40817;51.520;9.954;2023-09-19T05:01:37;5.93;;;2.08;;
11998;SDS011;40817;51.520;9.954;2023-09-19T05:04:05;5.68;;;2.63;;
11998;SDS011;40817;51.520;9.954;2023-09-19T05:06:32;4.90;;;2.35;;
11998;SDS011;40817;51.520;9.954;2023-09-19T05:09:00;7.13;;;2.30;;
11998;SDS011;40817;51.520;9.954;2023-09-19T05:11:31;5.57;;;1.77;;
11998;SDS011;40817;51.520;9.954;2023-09-19T05:13:59;4.63;;;1.95;;
11998;SDS011;40817;51.520;9.954;2023-09-19T05:16:28;5.03;;;1.58;;
11998;SDS011;40817;51.520;9.954;2023-09-19T05:18:57;6.43;;;2.42;;
11998;SDS011;40817;51.520;9.954;2023-09-19T05:21:25;6.18;;;1.90;;
11998;SDS011;40817;51.520;9.954;2023-09-19T05:23:53;3.22;;;1.90;;
11998;SDS011;40817;51.520;9.954;2023-09-19T05:26:21;4.15;;;2.20;;
11998;SDS011;40817;51.520;9.954;2023-09-19T05:28:50;6.38;;;2.08;;
11998;SDS011;40817;51.520;9.954;2023-09-19T05:31:18;4.90;;;1.92;;
11998;SDS011;40817;51.520;9.954;2023-09-19T05:33:45;5.57;;;2.97;;
11998;SDS011;40817;51.520;9.954;2023-09-19T05:36:12;5.45;;;1.50;;
11998;SDS011;40817;51.520;9.954;2023-09-19T05:38:41;5.38;;;2.17;;
11998;SDS011;40817;51.520;9.954;2023-09-19T05:41:09;3.95;;;1.80;;
11998;SDS011;40817;51.520;9.954;2023-09-19T05:43:38;6.47;;;1.70;;
11998;SDS011;40817;51.520;9.954;2023-09-19T05:46:07;2.38;;;1.48;;
11998;SDS011;40817;51.520;9.954;2023-09-19T05:48:34;6.25;;;2.22;;
11998;SDS011;40817;51.520;9.954;2023-09-19T05:51:04;3.88;;;2.00;;
11998;SDS011;40817;51.520;9.954;2023-09-19T05:53:32;4.15;;;2.03;;
11998;SDS011;40817;51.520;9.954;2023-09-19T05:55:59;4.18;;;1.65;;
11998;SDS011;40817;51.520;9.954;2023-09-19T05:58:26;3.92;;;2.03;;
11998;SDS011;40817;51.520;9.954;2023-09-19T06:00:53;6.80;;;2.03;;
11998;SDS011;40817;51.520;9.954;2023-09-19T06:03:22;4.85;;;1.80;;
11998;SDS011;40817;51.520;9.954;2023-09-19T06:05:49;5.38;;;1.73;;
11998;SDS011;40817;51.520;9.954;2023-09-19T06:08:18;5.60;;;2.00;;
11998;SDS011;40817;51.520;9.954;2023-09-19T06:10:46;5.22;;;1.83;;
11998;SDS011;40817;51.520;9.954;2023-09-19T06:13:14;6.55;;;1.85;;
11998;SDS011;40817;51.520;9.954;2023-09-19T06:15:41;5.30;;;1.60;;
11998;SDS011;40817;51.520;9.954;2023-09-19T06:18:10;5.97;;;2.03;;
11998;SDS011;40817;51.520;9.954;2023-09-19T06:20:41;5.50;;;1.73;;
11998;SDS011;40817;51.520;9.954;2023-09-19T06:23:09;5.50;;;2.00;;
11998;SDS011;40817;51.520;9.954;2023-09-19T06:25:36;5.90;;;2.05;;
11998;SDS011;40817;51.520;9.954;2023-09-19T06:28:04;8.93;;;2.05;;
11998;SDS011;40817;51.520;9.954;2023-09-19T06:30:33;4.10;;;1.88;;
11998;SDS011;40817;51.520;9.954;2023-09-19T06:33:01;6.05;;;2.10;;
11998;SDS011;40817;51.520;9.954;2023-09-19T06:35:28;4.95;;;1.65;;
11998;SDS011;40817;51.520;9.954;2023-09-19T06:38:03;4.47;;;1.73;;
11998;SDS011;40817;51.520;9.954;2023-09-19T06:40:33;3.60;;;1.60;;
11998;SDS011;40817;51.520;9.954;2023-09-19T06:43:01;7.00;;;1.80;;
11998;SDS011;40817;51.520;9.954;2023-09-19T06:45:29;11.57;;;1.60;;
11998;SDS011;40817;51.520;9.954;2023-09-19T06:47:57;5.45;;;1.65;;
11998;SDS011;40817;51.520;9.954;2023-09-19T06:50:25;5.32;;;1.83;;
11998;SDS011;40817;51.520;9.954;2023-09-19T06:52:53;5.57;;;1.75;;
11998;SDS011;40817;51.520;9.954;2023-09-19T06:55:23;6.47;;;2.20;;
11998;SDS011;40817;51.520;9.954;2023-09-19T06:57:53;6.75;;;2.25;;
11998;SDS011;40817;51.520;9.954;2023-09-19T07:00:21;8.20;;;2.20;;
11998;SDS011;40817;51.520;9.954;2023-09-19T07:02:55;7.75;;;2.45;;
11998;SDS011;40817;51.520;9.954;2023-09-19T07:07:54;5.22;;;2.03;;
11998;SDS011;40817;51.520;9.954;2023-09-19T07:10:21;7.00;;;2.30;;
11998;SDS011;40817;51.520;9.954;2023-09-19T07:15:23;6.22;;;2.55;;
11998;SDS011;40817;51.520;9.954;2023-09-19T07:17:51;5.78;;;2.10;;
11998;SDS011;40817;51.520;9.954;2023-09-19T07:20:19;5.95;;;2.30;;
11998;SDS011;40817;51.520;9.954;2023-09-19T07:22:46;7.80;;;2.65;;
11998;SDS011;40817;51.520;9.954;2023-09-19T07:25:15;5.97;;;2.28;;
11998;SDS011;40817;51.520;9.954;2023-09-19T07:27:45;5.00;;;2.20;;
11998;SDS011;40817;51.520;9.954;2023-09-19T07:30:12;8.15;;;2.10;;
11998;SDS011;40817;51.520;9.954;2023-09-19T07:32:42;5.78;;;2.47;;
11998;SDS011;40817;51.520;9.954;2023-09-19T07:35:09;7.22;;;2.60;;
11998;SDS011;40817;51.520;9.954;2023-09-19T07:37:37;6.70;;;2.55;;
11998;SDS011;40817;51.520;9.954;2023-09-19T07:40:05;7.25;;;1.98;;
11998;SDS011;40817;51.520;9.954;2023-09-19T07:42:34;7.50;;;2.10;;
11998;SDS011;40817;51.520;9.954;2023-09-19T07:45:07;7.18;;;2.22;;
11998;SDS011;40817;51.520;9.954;2023-09-19T07:47:39;5.03;;;1.90;;
11998;SDS011;40817;51.520;9.954;2023-09-19T07:50:09;7.60;;;2.58;;
11998;SDS011;40817;51.520;9.954;2023-09-19T07:52:37;6.35;;;2.10;;
11998;SDS011;40817;51.520;9.954;2023-09-19T07:55:05;6.45;;;2.55;;
11998;SDS011;40817;51.520;9.954;2023-09-19T07:57:36;6.38;;;2.88;;
11998;SDS011;40817;51.520;9.954;2023-09-19T08:00:03;6.57;;;2.35;;
11998;SDS011;40817;51.520;9.954;2023-09-19T08:02:36;5.80;;;2.30;;
11998;SDS011;40817;51.520;9.954;2023-09-19T08:05:04;7.60;;;2.40;;
11998;SDS011;40817;51.520;9.954;2023-09-19T08:07:35;6.00;;;2.10;;
11998;SDS011;40817;51.520;9.954;2023-09-19T08:10:03;6.18;;;2.35;;
11998;SDS011;40817;51.520;9.954;2023-09-19T08:12:33;6.32;;;2.30;;
11998;SDS011;40817;51.520;9.954;2023-09-19T08:15:00;5.53;;;2.20;;
11998;SDS011;40817;51.520;9.954;2023-09-19T08:17:31;7.75;;;2.97;;
11998;SDS011;40817;51.520;9.954;2023-09-19T08:20:01;6.13;;;2.20;;
11998;SDS011;40817;51.520;9.954;2023-09-19T08:22:30;5.40;;;2.17;;
11998;SDS011;40817;51.520;9.954;2023-09-19T08:24:57;7.47;;;2.45;;
11998;SDS011;40817;51.520;9.954;2023-09-19T08:27:26;10.27;;;3.38;;
11998;SDS011;40817;51.520;9.954;2023-09-19T08:29:54;7.80;;;2.58;;
11998;SDS011;40817;51.520;9.954;2023-09-19T08:32:21;7.22;;;2.22;;
11998;SDS011;40817;51.520;9.954;2023-09-19T08:34:50;6.95;;;2.33;;
11998;SDS011;40817;51.520;9.954;2023-09-19T08:37:18;5.63;;;2.03;;
11998;SDS011;40817;51.520;9.954;2023-09-19T08:39:45;8.07;;;3.10;;
11998;SDS011;40817;51.520;9.954;2023-09-19T08:42:12;7.35;;;2.33;;
11998;SDS011;40817;51.520;9.954;2023-09-19T08:44:41;6.53;;;2.20;;
11998;SDS011;40817;51.520;9.954;2023-09-19T08:47:10;5.78;;;2.15;;
11998;SDS011;40817;51.520;9.954;2023-09-19T08:52:41;5.43;;;1.80;;
11998;SDS011;40817;51.520;9.954;2023-09-19T08:55:11;4.63;;;2.13;;
11998;SDS011;40817;51.520;9.954;2023-09-19T08:57:47;8.63;;;2.78;;
11998;SDS011;40817;51.520;9.954;2023-09-19T09:00:18;14.30;;;2.63;;
11998;SDS011;40817;51.520;9.954;2023-09-19T09:02:48;4.93;;;1.92;;
11998;SDS011;40817;51.520;9.954;2023-09-19T09:05:17;9.60;;;2.25;;
11998;SDS011;40817;51.520;9.954;2023-09-19T09:07:48;14.10;;;2.95;;
11998;SDS011;40817;51.520;9.954;2023-09-19T09:10:17;5.47;;;1.88;;
11998;SDS011;40817;51.520;9.954;2023-09-19T09:12:47;7.80;;;2.05;;
11998;SDS011;40817;51.520;9.954;2023-09-19T09:15:17;9.25;;;2.20;;
11998;SDS011;40817;51.520;9.954;2023-09-19T09:17:48;5.78;;;1.75;;
11998;SDS011;40817;51.520;9.954;2023-09-19T09:20:19;6.25;;;1.90;;
11998;SDS011;40817;51.520;9.954;2023-09-19T09:22:50;11.32;;;2.38;;
11998;SDS011;40817;51.520;9.954;2023-09-19T09:25:19;4.55;;;1.83;;
11998;SDS011;40817;51.520;9.954;2023-09-19T09:27:58;5.38;;;1.80;;
11998;SDS011;40817;51.520;9.954;2023-09-19T09:30:33;7.80;;;1.92;;
11998;SDS011;40817;51.520;9.954;2023-09-19T09:33:09;8.13;;;1.58;;
11998;SDS011;40817;51.520;9.954;2023-09-19T09:35:39;6.55;;;2.20;;
11998;SDS011;40817;51.520;9.954;2023-09-19T09:38:19;5.25;;;2.22;;
11998;SDS011;40817;51.520;9.954;2023-09-19T09:40:51;6.63;;;1.65;;
11998;SDS011;40817;51.520;9.954;2023-09-19T09:43:25;13.90;;;2.65;;
11998;SDS011;40817;51.520;9.954;2023-09-19T09:46:06;7.25;;;1.80;;
11998;SDS011;40817;51.520;9.954;2023-09-19T09:48:55;6.95;;;2.28;;
11998;SDS011;40817;51.520;9.954;2023-09-19T09:51:58;7.97;;;1.80;;
11998;SDS011;40817;51.520;9.954;2023-09-19T09:54:30;7.13;;;2.13;;
11998;SDS011;40817;51.520;9.954;2023-09-19T09:57:03;5.60;;;1.95;;
11998;SDS011;40817;51.520;9.954;2023-09-19T09:59:45;9.27;;;1.90;;
11998;SDS011;40817;51.520;9.954;2023-09-19T10:02:16;10.27;;;2.95;;
11998;SDS011;40817;51.520;9.954;2023-09-19T10:04:50;10.10;;;2.10;;
11998;SDS011;40817;51.520;9.954;2023-09-19T10:07:29;6.90;;;2.35;;
11998;SDS011;40817;51.520;9.954;2023-09-19T10:10:04;7.63;;;2.30;;
11998;SDS011;40817;51.520;9.954;2023-09-19T10:12:43;8.02;;;2.00;;
11998;SDS011;40817;51.520;9.954;2023-09-19T10:15:13;8.15;;;2.55;;
11998;SDS011;40817;51.520;9.954;2023-09-19T10:17:45;6.80;;;1.83;;
11998;SDS011;40817;51.520;9.954;2023-09-19T10:20:15;12.60;;;2.42;;
11998;SDS011;40817;51.520;9.954;2023-09-19T10:23:00;7.40;;;2.22;;
11998;SDS011;40817;51.520;9.954;2023-09-19T10:25:36;7.22;;;2.15;;
11998;SDS011;40817;51.520;9.954;2023-09-19T10:28:05;8.90;;;2.10;;
11998;SDS011;40817;51.520;9.954;2023-09-19T10:30:36;7.47;;;2.13;;
11998;SDS011;40817;51.520;9.954;2023-09-19T10:33:10;7.57;;;1.90;;
11998;SDS011;40817;51.520;9.954;2023-09-19T10:35:40;8.27;;;2.20;;
11998;SDS011;40817;51.520;9.954;2023-09-19T10:38:12;7.88;;;1.98;;
11998;SDS011;40817;51.520;9.954;2023-09-19T10:40:44;6.72;;;2.00;;
11998;SDS011;40817;51.520;9.954;2023-09-19T10:43:15;9.10;;;2.50;;
11998;SDS011;40817;51.520;9.954;2023-09-19T10:45:46;8.38;;;2.17;;
11998;SDS011;40817;51.520;9.954;2023-09-19T10:48:17;11.85;;;2.38;;
11998;SDS011;40817;51.520;9.954;2023-09-19T10:50:52;7.85;;;2.58;;
11998;SDS011;40817;51.520;9.954;2023-09-19T10:53:32;9.07;;;2.20;;
11998;SDS011;40817;51.520;9.954;2023-09-19T10:56:15;7.30;;;2.20;;
11998;SDS011;40817;51.520;9.954;2023-09-19T10:58:53;8.13;;;2.08;;
11998;SDS011;40817;51.520;9.954;2023-09-19T11:01:45;6.57;;;1.80;;
11998;SDS011;40817;51.520;9.954;2023-09-19T11:04:22;9.95;;;2.10;;
11998;SDS011;40817;51.520;9.954;2023-09-19T11:07:04;4.85;;;2.15;;
11998;SDS011;40817;51.520;9.954;2023-09-19T11:09:47;7.05;;;2.00;;
11998;SDS011;40817;51.520;9.954;2023-09-19T11:18:51;5.20;;;1.85;;
11998;SDS011;40817;51.520;9.954;2023-09-19T11:21:41;7.30;;;2.33;;
11998;SDS011;40817;51.520;9.954;2023-09-19T11:24:28;11.60;;;2.55;;
11998;SDS011;40817;51.520;9.954;2023-09-19T11:27:11;8.35;;;2.42;;
11998;SDS011;40817;51.520;9.954;2023-09-19T11:29:43;7.85;;;2.17;;
11998;SDS011;40817;51.520;9.954;2023-09-19T11:32:12;7.07;;;2.08;;
11998;SDS011;40817;51.520;9.954;2023-09-19T11:34:45;6.32;;;1.80;;
11998;SDS011;40817;51.520;9.954;2023-09-19T11:40:29;6.97;;;2.03;;
11998;SDS011;40817;51.520;9.954;2023-09-19T11:42:59;7.30;;;2.40;;
11998;SDS011;40817;51.520;9.954;2023-09-19T11:48:42;8.07;;;2.13;;
11998;SDS011;40817;51.520;9.954;2023-09-19T11:51:14;5.43;;;2.00;;
11998;SDS011;40817;51.520;9.954;2023-09-19T11:53:52;8.23;;;1.75;;
11998;SDS011;40817;51.520;9.954;2023-09-19T11:56:23;5.80;;;1.63;;
11998;SDS011;40817;51.520;9.954;2023-09-19T11:58:54;6.60;;;2.15;;
11998;SDS011;40817;51.520;9.954;2023-09-19T12:01:24;7.72;;;2.50;;
11998;SDS011;40817;51.520;9.954;2023-09-19T12:03:58;7.10;;;1.75;;
11998;SDS011;40817;51.520;9.954;2023-09-19T12:06:29;5.63;;;1.98;;
11998;SDS011;40817;51.520;9.954;2023-09-19T12:08:58;7.82;;;2.75;;
11998;SDS011;40817;51.520;9.954;2023-09-19T12:11:27;5.60;;;2.05;;
11998;SDS011;40817;51.520;9.954;2023-09-19T12:14:00;7.97;;;2.20;;
11998;SDS011;40817;51.520;9.954;2023-09-19T12:16:29;5.00;;;1.65;;
11998;SDS011;40817;51.520;9.954;2023-09-19T12:18:58;5.55;;;1.65;;
11998;SDS011;40817;51.520;9.954;2023-09-19T12:21:53;5.65;;;2.10;;
11998;SDS011;40817;51.520;9.954;2023-09-19T12:24:24;5.22;;;1.70;;
11998;SDS011;40817;51.520;9.954;2023-09-19T12:26:59;6.10;;;1.98;;
11998;SDS011;40817;51.520;9.954;2023-09-19T12:29:31;8.07;;;2.22;;
11998;SDS011;40817;51.520;9.954;2023-09-19T12:32:09;6.30;;;1.90;;
11998;SDS011;40817;51.520;9.954;2023-09-19T12:34:38;8.55;;;2.10;;
11998;SDS011;40817;51.520;9.954;2023-09-19T12:37:08;5.78;;;1.98;;
11998;SDS011;40817;51.520;9.954;2023-09-19T12:39:44;6.43;;;2.05;;
11998;SDS011;40817;51.520;9.954;2023-09-19T12:42:14;6.22;;;2.28;;
11998;SDS011;40817;51.520;9.954;2023-09-19T12:44:45;4.68;;;1.75;;
11998;SDS011;40817;51.520;9.954;2023-09-19T12:47:17;5.45;;;1.80;;
11998;SDS011;40817;51.520;9.954;2023-09-19T12:50:10;7.45;;;2.35;;
11998;SDS011;40817;51.520;9.954;2023-09-19T12:52:40;7.10;;;2.13;;
11998;SDS011;40817;51.520;9.954;2023-09-19T12:55:22;6.72;;;2.15;;
11998;SDS011;40817;51.520;9.954;2023-09-19T12:57:58;5.25;;;2.13;;
11998;SDS011;40817;51.520;9.954;2023-09-19T13:00:39;8.77;;;2.30;;
11998;SDS011;40817;51.520;9.954;2023-09-19T13:03:16;5.60;;;2.05;;
11998;SDS011;40817;51.520;9.954;2023-09-19T13:05:51;7.32;;;1.98;;
11998;SDS011;40817;51.520;9.954;2023-09-19T13:08:24;5.97;;;2.13;;
11998;SDS011;40817;51.520;9.954;2023-09-19T13:10:59;8.45;;;2.20;;
11998;SDS011;40817;51.520;9.954;2023-09-19T13:13:43;6.10;;;2.17;;
11998;SDS011;40817;51.520;9.954;2023-09-19T13:16:16;7.90;;;2.10;;
11998;SDS011;40817;51.520;9.954;2023-09-19T13:18:48;7.18;;;2.08;;
11998;SDS011;40817;51.520;9.954;2023-09-19T13:21:29;8.32;;;2.30;;
11998;SDS011;40817;51.520;9.954;2023-09-19T13:24:18;5.97;;;2.00;;
11998;SDS011;40817;51.520;9.954;2023-09-19T13:26:48;6.57;;;2.17;;
11998;SDS011;40817;51.520;9.954;2023-09-19T13:29:15;6.55;;;2.22;;
11998;SDS011;40817;51.520;9.954;2023-09-19T13:31:46;5.80;;;1.88;;
11998;SDS011;40817;51.520;9.954;2023-09-19T13:34:14;4.50;;;1.60;;
11998;SDS011;40817;51.520;9.954;2023-09-19T13:36:42;7.25;;;1.90;;
11998;SDS011;40817;51.520;9.954;2023-09-19T13:39:10;5.80;;;2.22;;
11998;SDS011;40817;51.520;9.954;2023-09-19T13:41:38;6.18;;;1.88;;
11998;SDS011;40817;51.520;9.954;2023-09-19T13:44:05;8.43;;;1.52;;
11998;SDS011;40817;51.520;9.954;2023-09-19T13:46:35;5.57;;;2.20;;
11998;SDS011;40817;51.520;9.954;2023-09-19T13:49:04;5.32;;;1.92;;
11998;SDS011;40817;51.520;9.954;2023-09-19T13:51:32;7.07;;;1.52;;
11998;SDS011;40817;51.520;9.954;2023-09-19T13:53:59;8.63;;;2.10;;
11998;SDS011;40817;51.520;9.954;2023-09-19T13:56:26;4.45;;;1.73;;
11998;SDS011;40817;51.520;9.954;2023-09-19T13:58:55;6.43;;;1.75;;
11998;SDS011;40817;51.520;9.954;2023-09-19T14:01:22;8.88;;;2.35;;
11998;SDS011;40817;51.520;9.954;2023-09-19T14:03:51;7.95;;;1.95;;
11998;SDS011;40817;51.520;9.954;2023-09-19T14:06:22;6.10;;;1.50;;
11998;SDS011;40817;51.520;9.954;2023-09-19T14:08:50;4.95;;;1.52;;
11998;SDS011;40817;51.520;9.954;2023-09-19T14:11:17;6.00;;;1.83;;
11998;SDS011;40817;51.520;9.954;2023-09-19T14:13:45;6.05;;;1.73;;
11998;SDS011;40817;51.520;9.954;2023-09-19T14:16:14;4.95;;;1.70;;
11998;SDS011;40817;51.520;9.954;2023-09-19T14:18:44;3.42;;;1.38;;
11998;SDS011;40817;51.520;9.954;2023-09-19T14:21:12;3.78;;;1.38;;
11998;SDS011;40817;51.520;9.954;2023-09-19T14:23:41;3.92;;;1.42;;
11998;SDS011;40817;51.520;9.954;2023-09-19T14:26:09;5.80;;;1.65;;
11998;SDS011;40817;51.520;9.954;2023-09-19T14:28:36;6.05;;;1.83;;
11998;SDS011;40817;51.520;9.954;2023-09-19T14:31:04;5.40;;;1.88;;
11998;SDS011;40817;51.520;9.954;2023-09-19T14:33:33;4.55;;;1.33;;
11998;SDS011;40817;51.520;9.954;2023-09-19T14:36:04;4.38;;;1.10;;
11998;SDS011;40817;51.520;9.954;2023-09-19T14:38:34;3.78;;;1.73;;
11998;SDS011;40817;51.520;9.954;2023-09-19T14:41:05;8.02;;;1.88;;
11998;SDS011;40817;51.520;9.954;2023-09-19T14:43:33;4.53;;;1.40;;
11998;SDS011;40817;51.520;9.954;2023-09-19T14:46:02;5.40;;;1.60;;
11998;SDS011;40817;51.520;9.954;2023-09-19T14:48:32;4.65;;;1.73;;
11998;SDS011;40817;51.520;9.954;2023-09-19T14:51:01;5.75;;;1.60;;
11998;SDS011;40817;51.520;9.954;2023-09-19T14:53:29;5.63;;;1.75;;
11998;SDS011;40817;51.520;9.954;2023-09-19T14:55:59;5.10;;;1.55;;
11998;SDS011;40817;51.520;9.954;2023-09-19T14:58:30;4.22;;;1.50;;
11998;SDS011;40817;51.520;9.954;2023-09-19T15:01:02;7.22;;;2.03;;
11998;SDS011;40817;51.520;9.954;2023-09-19T15:03:32;5.57;;;1.58;;
11998;SDS011;40817;51.520;9.954;2023-09-19T15:06:01;7.28;;;2.13;;
11998;SDS011;40817;51.520;9.954;2023-09-19T15:08:30;4.55;;;1.60;;
11998;SDS011;40817;51.520;9.954;2023-09-19T15:10:59;6.55;;;2.05;;
11998;SDS011;40817;51.520;9.954;2023-09-19T15:13:30;4.32;;;1.60;;
11998;SDS011;40817;51.520;9.954;2023-09-19T15:15:58;7.20;;;2.08;;
11998;SDS011;40817;51.520;9.954;2023-09-19T15:18:27;6.85;;;2.63;;
11998;SDS011;40817;51.520;9.954;2023-09-19T15:20:55;7.35;;;2.35;;
11998;SDS011;40817;51.520;9.954;2023-09-19T15:23:23;6.57;;;2.17;;
11998;SDS011;40817;51.520;9.954;2023-09-19T15:25:50;7.53;;;2.03;;
11998;SDS011;40817;51.520;9.954;2023-09-19T15:28:18;5.15;;;1.80;;
11998;SDS011;40817;51.520;9.954;2023-09-19T15:30:49;9.25;;;1.95;;
11998;SDS011;40817;51.520;9.954;2023-09-19T15:33:16;9.52;;;1.98;;